Apollo — WDC2576 — position and weather

sailwx.info

Track history (hours):
 
Tides and Currents Weather Stations Pressure Air Temp Water Temp Dewpoint Dewpoint Depression Visibility Wind Speed Wind Dir Waves Ship Positions

Apollo

Owner: Kirby Inland Marine LP, Houston, TX. More information available from US FCC via Universal Licensing System and Coast Guard Vessel Documentation Center.

Last reported at 2018-Jun-25 01:30 UTC. Time now 2018-Jun-25 01:43 UTC.
Position N 29°14' W 095°01'.

Length 114 m; draft 2.7 m.

Type: . MMSI: 366995180.

Date/timePositionNaut miles runAvg speedWind from/ knotsBaromVisibWave heightAir tempDewpointWater temp
2018-Jun-25 01:30N 29°14' W 095°01'2 4.9
2018-Jun-25 01:00N 29°16' W 094°59'2 4.3
2018-Jun-25 00:30N 29°17' W 094°57'2 3.7
2018-Jun-25 00:00N 29°17' W 094°55'2 3.6
2018-Jun-24 23:30N 29°18' W 094°53'2 4.3
2018-Jun-24 23:00N 29°20' W 094°51'2 4.5
2018-Jun-24 22:30N 29°21' W 094°49'3 5.6
2018-Jun-24 21:59N 29°23' W 094°47'4 5.5
2018-Jun-24 21:14N 29°26' W 094°43'0 0.1
2018-Jun-24 20:55N 29°26' W 094°43'4 1.3
2018-Jun-24 17:37N 29°23' W 094°47'1 5.2
2018-Jun-24 17:30N 29°22' W 094°47'2 4.7
2018-Jun-24 16:58N 29°24' W 094°49'7 5.9
2018-Jun-24 15:44N 29°31' W 094°53'1 5.8
2018-Jun-24 15:30N 29°32' W 094°54'3 5.7
2018-Jun-24 15:00N 29°34' W 094°55'3 5.7
2018-Jun-24 14:30N 29°36' W 094°57'3 5.6
2018-Jun-24 14:00N 29°39' W 094°58'3 5.7
2018-Jun-24 13:30N 29°42' W 094°60'3 4.9
2018-Jun-24 12:58N 29°44' W 095°01'2 1.1
2018-Jun-24 11:26N 29°44' W 095°03'3 0.1
2018-Jun-23 11:30N 29°47' W 095°04'0 0.0
2018-Jun-23 11:00N 29°47' W 095°04'2 2.1
2018-Jun-23 10:07N 29°46' W 095°05'1 5.2
2018-Jun-23 10:00N 29°45' W 095°06'2 0.7
2018-Jun-23 06:34N 29°44' W 095°08'0 0.0
2018-Jun-23 06:23N 29°44' W 095°08'0 0.0
2018-Jun-23 05:50N 29°44' W 095°08'0 0.0
2018-Jun-23 05:30N 29°44' W 095°08'0 0.0
2018-Jun-23 05:00N 29°44' W 095°08'0 0.0
2018-Jun-23 04:30N 29°44' W 095°08'0 0.0
2018-Jun-23 04:00N 29°44' W 095°08'0 0.0
2018-Jun-23 03:28N 29°44' W 095°08'3 0.2
2018-Jun-22 12:40N 29°46' W 095°06'1 0.8
2018-Jun-22 11:06N 29°46' W 095°05'1 4.9
2018-Jun-22 10:58N 29°47' W 095°04'0 0.0
2018-Jun-22 08:48N 29°47' W 095°04'1 3.3
2018-Jun-22 08:27N 29°46' W 095°05'2 5.0
2018-Jun-22 08:00N 29°44' W 095°07'1 0.7
2018-Jun-22 06:04N 29°44' W 095°08'0 0.0
2018-Jun-22 06:00N 29°44' W 095°08'0 0.0
2018-Jun-22 05:30N 29°44' W 095°08'0 0.1
2018-Jun-22 04:31N 29°44' W 095°08'5 0.2
2018-Jun-21 05:48N 29°44' W 095°03'2 5.6
2018-Jun-21 05:22N 29°42' W 095°01'2 6.2
2018-Jun-21 04:59N 29°41' W 094°59'3 7.0
2018-Jun-21 04:30N 29°37' W 094°58'3 6.6
2018-Jun-21 03:59N 29°34' W 094°56'5 6.9
2018-Jun-21 03:19N 29°31' W 094°53'2 6.3
2018-Jun-21 03:00N 29°29' W 094°52'3 6.6
2018-Jun-21 02:30N 29°26' W 094°50'3 6.2
2018-Jun-21 02:00N 29°23' W 094°49'2 4.6
2018-Jun-21 01:29N 29°21' W 094°49'3 5.9
2018-Jun-21 01:00N 29°19' W 094°52'3 5.6
2018-Jun-21 00:30N 29°17' W 094°54'3 6.2
2018-Jun-21 00:00N 29°17' W 094°58'1 2.4
2018-Jun-20 23:30N 29°16' W 094°59'0 0.0
2018-Jun-20 23:00N 29°16' W 094°59'0 0.0
2018-Jun-20 22:30N 29°16' W 094°59'0 0.0
2018-Jun-20 22:00N 29°16' W 094°59'0 0.0
2018-Jun-20 21:30N 29°16' W 094°59'0 0.0
2018-Jun-20 21:00N 29°16' W 094°59'0 0.0
2018-Jun-20 20:30N 29°16' W 094°59'0 0.0
2018-Jun-20 20:00N 29°16' W 094°59'0 0.0
2018-Jun-20 19:30N 29°16' W 094°59'0 0.0
2018-Jun-20 19:00N 29°16' W 094°59'0 0.0
2018-Jun-20 18:30N 29°16' W 094°59'0 0.0
2018-Jun-20 18:00N 29°16' W 094°59'0 0.0
2018-Jun-20 17:30N 29°16' W 094°59'0 0.0
2018-Jun-20 17:00N 29°16' W 094°59'0 0.0
2018-Jun-20 16:30N 29°16' W 094°59'0 0.0
2018-Jun-20 16:00N 29°16' W 094°59'0 0.0
2018-Jun-20 15:30N 29°16' W 094°59'0 0.0
2018-Jun-20 15:00N 29°16' W 094°59'1 1.7
2018-Jun-20 14:30N 29°16' W 094°60'3 6.8
2018-Jun-20 14:00N 29°13' W 095°02'4 7.3
2018-Jun-20 13:30N 29°11' W 095°05'3 5.3
2018-Jun-20 13:00N 29°11' W 095°08'3 6.2
2018-Jun-20 12:30N 29°12' W 095°11'1 3.0
2018-Jun-20 12:00N 29°13' W 095°13'26 2.9
2018-Jun-20 03:13N 29°23' W 094°46'0 0.0
2018-Jun-20 02:59N 29°23' W 094°46'3 1.9
2018-Jun-20 01:25N 29°25' W 094°43'2 3.6
2018-Jun-20 00:59N 29°24' W 094°45'2 4.2
2018-Jun-20 00:28N 29°23' W 094°46'6 4.7
2018-Jun-19 23:14N 29°23' W 094°53'0 2.1
2018-Jun-19 23:00N 29°22' W 094°53'0 0.2
2018-Jun-19 22:30N 29°22' W 094°53'0 0.0
2018-Jun-19 21:58N 29°22' W 094°53'0 0.0
2018-Jun-19 18:56N 29°22' W 094°53'0 0.1
2018-Jun-19 18:30N 29°22' W 094°53'0 0.0
2018-Jun-19 18:00N 29°22' W 094°53'0 0.0
2018-Jun-19 17:30N 29°22' W 094°53'0 0.0
2018-Jun-19 16:47N 29°22' W 094°53'0 0.1
2018-Jun-19 16:30N 29°22' W 094°53'0 0.0
2018-Jun-19 16:00N 29°22' W 094°53'0 0.0
2018-Jun-19 15:30N 29°22' W 094°53'0 0.0
2018-Jun-19 15:00N 29°22' W 094°53'0 0.0
2018-Jun-19 14:30N 29°22' W 094°53'0 0.0
2018-Jun-19 13:58N 29°22' W 094°53'0 0.0
2018-Jun-19 13:28N 29°22' W 094°53'0 0.0
2018-Jun-19 13:00N 29°22' W 094°53'0 0.0
2018-Jun-19 12:30N 29°22' W 094°53'0 0.0
2018-Jun-19 12:00N 29°22' W 094°53'0 0.0
2018-Jun-19 11:30N 29°22' W 094°53'0 0.0
2018-Jun-19 11:00N 29°22' W 094°53'0 0.0
2018-Jun-19 10:29N 29°22' W 094°53'0 0.0
2018-Jun-18 23:36N 29°22' W 094°53'0 0.0
2018-Jun-18 23:20N 29°22' W 094°53'0 0.0
2018-Jun-18 23:00N 29°22' W 094°53'0 0.0
2018-Jun-18 22:26N 29°22' W 094°53'0 0.0
2018-Jun-18 22:00N 29°22' W 094°53'0 0.4
2018-Jun-18 21:30N 29°22' W 094°53'0 0.8
2018-Jun-18 21:00N 29°22' W 094°53'2 3.6
2018-Jun-18 20:30N 29°23' W 094°51'2 5.0
2018-Jun-18 20:00N 29°23' W 094°48'14 7.0
2018-Jun-18 17:57N 29°35' W 094°56'3 6.7
2018-Jun-18 17:30N 29°38' W 094°58'3 6.9
2018-Jun-18 17:00N 29°41' W 094°59'2 0.1
2018-Jun-17 09:42N 29°42' W 095°01'1 5.7
2018-Jun-17 09:28N 29°42' W 094°60'3 5.4
2018-Jun-17 09:00N 29°39' W 094°58'3 4.2
2018-Jun-17 08:22N 29°37' W 094°59'2 6.0
2018-Jun-17 08:00N 29°37' W 095°01'0 0.4
2018-Jun-17 07:27N 29°37' W 095°01'0 0.0
2018-Jun-17 07:00N 29°37' W 095°01'0 0.0
2018-Jun-17 06:31N 29°37' W 095°01'0 0.0
2018-Jun-17 05:59N 29°37' W 095°01'0 0.0
2018-Jun-17 05:29N 29°37' W 095°01'0 0.0
2018-Jun-17 04:55N 29°37' W 095°01'0 0.0
2018-Jun-17 01:57N 29°37' W 095°01'0 0.0
2018-Jun-17 01:03N 29°37' W 095°01'0 0.1
2018-Jun-17 01:00N 29°37' W 095°01'0 0.0
2018-Jun-17 00:29N 29°37' W 095°01'0 0.1
2018-Jun-17 00:01N 29°37' W 095°01'0 0.0
2018-Jun-16 23:31N 29°37' W 095°01'0 0.0
2018-Jun-16 23:00N 29°37' W 095°01'0 0.0
2018-Jun-16 22:31N 29°37' W 095°01'0 0.0
2018-Jun-16 22:00N 29°37' W 095°01'0 0.0
2018-Jun-16 21:31N 29°37' W 095°01'0 0.0
2018-Jun-16 21:01N 29°37' W 095°01'0 0.0
2018-Jun-16 20:31N 29°37' W 095°01'0 0.0
2018-Jun-16 20:00N 29°37' W 095°01'1 2.8
2018-Jun-16 19:30N 29°37' W 094°60'2 4.1
2018-Jun-16 19:00N 29°37' W 094°58'2 4.7
2018-Jun-16 18:31N 29°39' W 094°58'2 4.6
2018-Jun-16 17:59N 29°42' W 094°60'2 0.1
2018-Jun-15 20:03N 29°42' W 095°01'0 4.8
2018-Jun-15 20:00N 29°42' W 095°01'3 4.6
2018-Jun-15 19:17N 29°40' W 094°58'1 5.2
2018-Jun-15 19:00N 29°38' W 094°58'2 3.0
2018-Jun-15 18:29N 29°37' W 094°59'2 4.7
2018-Jun-15 18:00N 29°37' W 095°01'0 0.6
2018-Jun-15 17:30N 29°37' W 095°01'0 0.0
2018-Jun-15 16:27N 29°37' W 095°02'0 0.0
2018-Jun-15 14:47N 29°37' W 095°02'0 0.0
2018-Jun-15 14:28N 29°37' W 095°02'0 0.0
2018-Jun-15 14:00N 29°37' W 095°02'0 0.0
2018-Jun-15 13:30N 29°37' W 095°02'0 0.0
2018-Jun-15 13:00N 29°37' W 095°02'0 0.0
2018-Jun-15 12:30N 29°37' W 095°02'0 0.0
2018-Jun-15 12:00N 29°37' W 095°02'0 0.0
2018-Jun-15 11:30N 29°37' W 095°02'0 0.0
2018-Jun-15 10:59N 29°37' W 095°02'0 0.0
2018-Jun-15 10:23N 29°37' W 095°02'0 0.0
2018-Jun-15 09:58N 29°37' W 095°02'0 0.0
2018-Jun-15 09:28N 29°37' W 095°02'0 0.0
2018-Jun-15 08:59N 29°37' W 095°02'0 0.0
2018-Jun-15 08:30N 29°37' W 095°02'0 0.0
2018-Jun-15 07:56N 29°37' W 095°02'0 0.0
2018-Jun-15 07:24N 29°37' W 095°02'0 0.0
2018-Jun-15 06:56N 29°37' W 095°02'0 0.0
2018-Jun-15 06:30N 29°37' W 095°02'0 0.0
2018-Jun-15 06:00N 29°37' W 095°02'0 0.0
2018-Jun-15 05:28N 29°37' W 095°02'0 0.0
2018-Jun-15 05:00N 29°37' W 095°02'0 0.0
2018-Jun-15 04:26N 29°37' W 095°02'0 0.0
2018-Jun-15 03:59N 29°37' W 095°02'0 0.0
2018-Jun-15 03:30N 29°37' W 095°02'0 0.0
2018-Jun-15 02:56N 29°37' W 095°02'  
Track history (hours):
 
Tides and Currents Weather Stations Pressure Air Temp Water Temp Dewpoint Dewpoint Depression Visibility Wind Speed Wind Dir Waves Ship Positions

Apollo

Owner: Kirby Inland Marine LP, Houston, TX. More information available from US FCC via Universal Licensing System and Coast Guard Vessel Documentation Center.

Last reported at 2018-Jun-25 01:30 UTC. Time now 2018-Jun-25 01:43 UTC.
Position N 29°14' W 095°01'.

Length 114 m; draft 2.7 m.

Type: . MMSI: 366995180.

Date/timePositionNaut miles runAvg speedWind from/ knotsBaromVisibWave heightAir tempDewpointWater temp
2018-Jun-25 01:30N 29°14' W 095°01'2 4.9
2018-Jun-25 01:00N 29°16' W 094°59'2 4.3
2018-Jun-25 00:30N 29°17' W 094°57'2 3.7
2018-Jun-25 00:00N 29°17' W 094°55'2 3.6
2018-Jun-24 23:30N 29°18' W 094°53'2 4.3
2018-Jun-24 23:00N 29°20' W 094°51'2 4.5
2018-Jun-24 22:30N 29°21' W 094°49'3 5.6
2018-Jun-24 21:59N 29°23' W 094°47'4 5.5
2018-Jun-24 21:14N 29°26' W 094°43'0 0.1
2018-Jun-24 20:55N 29°26' W 094°43'4 1.3
2018-Jun-24 17:37N 29°23' W 094°47'1 5.2
2018-Jun-24 17:30N 29°22' W 094°47'2 4.7
2018-Jun-24 16:58N 29°24' W 094°49'7 5.9
2018-Jun-24 15:44N 29°31' W 094°53'1 5.8
2018-Jun-24 15:30N 29°32' W 094°54'3 5.7
2018-Jun-24 15:00N 29°34' W 094°55'3 5.7
2018-Jun-24 14:30N 29°36' W 094°57'3 5.6
2018-Jun-24 14:00N 29°39' W 094°58'3 5.7
2018-Jun-24 13:30N 29°42' W 094°60'3 4.9
2018-Jun-24 12:58N 29°44' W 095°01'2 1.1
2018-Jun-24 11:26N 29°44' W 095°03'3 0.1
2018-Jun-23 11:30N 29°47' W 095°04'0 0.0
2018-Jun-23 11:00N 29°47' W 095°04'2 2.1
2018-Jun-23 10:07N 29°46' W 095°05'1 5.2
2018-Jun-23 10:00N 29°45' W 095°06'2 0.7
2018-Jun-23 06:34N 29°44' W 095°08'0 0.0
2018-Jun-23 06:23N 29°44' W 095°08'0 0.0
2018-Jun-23 05:50N 29°44' W 095°08'0 0.0
2018-Jun-23 05:30N 29°44' W 095°08'0 0.0
2018-Jun-23 05:00N 29°44' W 095°08'0 0.0
2018-Jun-23 04:30N 29°44' W 095°08'0 0.0
2018-Jun-23 04:00N 29°44' W 095°08'0 0.0
2018-Jun-23 03:28N 29°44' W 095°08'3 0.2
2018-Jun-22 12:40N 29°46' W 095°06'1 0.8
2018-Jun-22 11:06N 29°46' W 095°05'1 4.9
2018-Jun-22 10:58N 29°47' W 095°04'0 0.0
2018-Jun-22 08:48N 29°47' W 095°04'1 3.3
2018-Jun-22 08:27N 29°46' W 095°05'2 5.0
2018-Jun-22 08:00N 29°44' W 095°07'1 0.7
2018-Jun-22 06:04N 29°44' W 095°08'0 0.0
2018-Jun-22 06:00N 29°44' W 095°08'0 0.0
2018-Jun-22 05:30N 29°44' W 095°08'0 0.1
2018-Jun-22 04:31N 29°44' W 095°08'5 0.2
2018-Jun-21 05:48N 29°44' W 095°03'2 5.6
2018-Jun-21 05:22N 29°42' W 095°01'2 6.2
2018-Jun-21 04:59N 29°41' W 094°59'3 7.0
2018-Jun-21 04:30N 29°37' W 094°58'3 6.6
2018-Jun-21 03:59N 29°34' W 094°56'5 6.9
2018-Jun-21 03:19N 29°31' W 094°53'2 6.3
2018-Jun-21 03:00N 29°29' W 094°52'3 6.6
2018-Jun-21 02:30N 29°26' W 094°50'3 6.2
2018-Jun-21 02:00N 29°23' W 094°49'2 4.6
2018-Jun-21 01:29N 29°21' W 094°49'3 5.9
2018-Jun-21 01:00N 29°19' W 094°52'3 5.6
2018-Jun-21 00:30N 29°17' W 094°54'3 6.2
2018-Jun-21 00:00N 29°17' W 094°58'1 2.4
2018-Jun-20 23:30N 29°16' W 094°59'0 0.0
2018-Jun-20 23:00N 29°16' W 094°59'0 0.0
2018-Jun-20 22:30N 29°16' W 094°59'0 0.0
2018-Jun-20 22:00N 29°16' W 094°59'0 0.0
2018-Jun-20 21:30N 29°16' W 094°59'0 0.0
2018-Jun-20 21:00N 29°16' W 094°59'0 0.0
2018-Jun-20 20:30N 29°16' W 094°59'0 0.0
2018-Jun-20 20:00N 29°16' W 094°59'0 0.0
2018-Jun-20 19:30N 29°16' W 094°59'0 0.0
2018-Jun-20 19:00N 29°16' W 094°59'0 0.0
2018-Jun-20 18:30N 29°16' W 094°59'0 0.0
2018-Jun-20 18:00N 29°16' W 094°59'0 0.0
2018-Jun-20 17:30N 29°16' W 094°59'0 0.0
2018-Jun-20 17:00N 29°16' W 094°59'0 0.0
2018-Jun-20 16:30N 29°16' W 094°59'0 0.0
2018-Jun-20 16:00N 29°16' W 094°59'0 0.0
2018-Jun-20 15:30N 29°16' W 094°59'0 0.0
2018-Jun-20 15:00N 29°16' W 094°59'1 1.7
2018-Jun-20 14:30N 29°16' W 094°60'3 6.8
2018-Jun-20 14:00N 29°13' W 095°02'4 7.3
2018-Jun-20 13:30N 29°11' W 095°05'3 5.3
2018-Jun-20 13:00N 29°11' W 095°08'3 6.2
2018-Jun-20 12:30N 29°12' W 095°11'1 3.0
2018-Jun-20 12:00N 29°13' W 095°13'26 2.9
2018-Jun-20 03:13N 29°23' W 094°46'0 0.0
2018-Jun-20 02:59N 29°23' W 094°46'3 1.9
2018-Jun-20 01:25N 29°25' W 094°43'2 3.6
2018-Jun-20 00:59N 29°24' W 094°45'2 4.2
2018-Jun-20 00:28N 29°23' W 094°46'6 4.7
2018-Jun-19 23:14N 29°23' W 094°53'0 2.1
2018-Jun-19 23:00N 29°22' W 094°53'0 0.2
2018-Jun-19 22:30N 29°22' W 094°53'0 0.0
2018-Jun-19 21:58N 29°22' W 094°53'0 0.0
2018-Jun-19 18:56N 29°22' W 094°53'0 0.1
2018-Jun-19 18:30N 29°22' W 094°53'0 0.0
2018-Jun-19 18:00N 29°22' W 094°53'0 0.0
2018-Jun-19 17:30N 29°22' W 094°53'0 0.0
2018-Jun-19 16:47N 29°22' W 094°53'0 0.1
2018-Jun-19 16:30N 29°22' W 094°53'0 0.0
2018-Jun-19 16:00N 29°22' W 094°53'0 0.0
2018-Jun-19 15:30N 29°22' W 094°53'0 0.0
2018-Jun-19 15:00N 29°22' W 094°53'0 0.0
2018-Jun-19 14:30N 29°22' W 094°53'0 0.0
2018-Jun-19 13:58N 29°22' W 094°53'0 0.0
2018-Jun-19 13:28N 29°22' W 094°53'0 0.0
2018-Jun-19 13:00N 29°22' W 094°53'0 0.0
2018-Jun-19 12:30N 29°22' W 094°53'0 0.0
2018-Jun-19 12:00N 29°22' W 094°53'0 0.0
2018-Jun-19 11:30N 29°22' W 094°53'0 0.0
2018-Jun-19 11:00N 29°22' W 094°53'0 0.0
2018-Jun-19 10:29N 29°22' W 094°53'0 0.0
2018-Jun-18 23:36N 29°22' W 094°53'0 0.0
2018-Jun-18 23:20N 29°22' W 094°53'0 0.0
2018-Jun-18 23:00N 29°22' W 094°53'0 0.0
2018-Jun-18 22:26N 29°22' W 094°53'0 0.0
2018-Jun-18 22:00N 29°22' W 094°53'0 0.4
2018-Jun-18 21:30N 29°22' W 094°53'0 0.8
2018-Jun-18 21:00N 29°22' W 094°53'2 3.6
2018-Jun-18 20:30N 29°23' W 094°51'2 5.0
2018-Jun-18 20:00N 29°23' W 094°48'14 7.0
2018-Jun-18 17:57N 29°35' W 094°56'3 6.7
2018-Jun-18 17:30N 29°38' W 094°58'3 6.9
2018-Jun-18 17:00N 29°41' W 094°59'2 0.1
2018-Jun-17 09:42N 29°42' W 095°01'1 5.7
2018-Jun-17 09:28N 29°42' W 094°60'3 5.4
2018-Jun-17 09:00N 29°39' W 094°58'3 4.2
2018-Jun-17 08:22N 29°37' W 094°59'2 6.0
2018-Jun-17 08:00N 29°37' W 095°01'0 0.4
2018-Jun-17 07:27N 29°37' W 095°01'0 0.0
2018-Jun-17 07:00N 29°37' W 095°01'0 0.0
2018-Jun-17 06:31N 29°37' W 095°01'0 0.0
2018-Jun-17 05:59N 29°37' W 095°01'0 0.0
2018-Jun-17 05:29N 29°37' W 095°01'0 0.0
2018-Jun-17 04:55N 29°37' W 095°01'0 0.0
2018-Jun-17 01:57N 29°37' W 095°01'0 0.0
2018-Jun-17 01:03N 29°37' W 095°01'0 0.1
2018-Jun-17 01:00N 29°37' W 095°01'0 0.0
2018-Jun-17 00:29N 29°37' W 095°01'0 0.1
2018-Jun-17 00:01N 29°37' W 095°01'0 0.0
2018-Jun-16 23:31N 29°37' W 095°01'0 0.0
2018-Jun-16 23:00N 29°37' W 095°01'0 0.0
2018-Jun-16 22:31N 29°37' W 095°01'0 0.0
2018-Jun-16 22:00N 29°37' W 095°01'0 0.0
2018-Jun-16 21:31N 29°37' W 095°01'0 0.0
2018-Jun-16 21:01N 29°37' W 095°01'0 0.0
2018-Jun-16 20:31N 29°37' W 095°01'0 0.0
2018-Jun-16 20:00N 29°37' W 095°01'1 2.8
2018-Jun-16 19:30N 29°37' W 094°60'2 4.1
2018-Jun-16 19:00N 29°37' W 094°58'2 4.7
2018-Jun-16 18:31N 29°39' W 094°58'2 4.6
2018-Jun-16 17:59N 29°42' W 094°60'2 0.1
2018-Jun-15 20:03N 29°42' W 095°01'0 4.8
2018-Jun-15 20:00N 29°42' W 095°01'3 4.6
2018-Jun-15 19:17N 29°40' W 094°58'1 5.2
2018-Jun-15 19:00N 29°38' W 094°58'2 3.0
2018-Jun-15 18:29N 29°37' W 094°59'2 4.7
2018-Jun-15 18:00N 29°37' W 095°01'0 0.6
2018-Jun-15 17:30N 29°37' W 095°01'0 0.0
2018-Jun-15 16:27N 29°37' W 095°02'0 0.0
2018-Jun-15 14:47N 29°37' W 095°02'0 0.0
2018-Jun-15 14:28N 29°37' W 095°02'0 0.0
2018-Jun-15 14:00N 29°37' W 095°02'0 0.0
2018-Jun-15 13:30N 29°37' W 095°02'0 0.0
2018-Jun-15 13:00N 29°37' W 095°02'0 0.0
2018-Jun-15 12:30N 29°37' W 095°02'0 0.0
2018-Jun-15 12:00N 29°37' W 095°02'0 0.0
2018-Jun-15 11:30N 29°37' W 095°02'0 0.0
2018-Jun-15 10:59N 29°37' W 095°02'0 0.0
2018-Jun-15 10:23N 29°37' W 095°02'0 0.0
2018-Jun-15 09:58N 29°37' W 095°02'0 0.0
2018-Jun-15 09:28N 29°37' W 095°02'0 0.0
2018-Jun-15 08:59N 29°37' W 095°02'0 0.0
2018-Jun-15 08:30N 29°37' W 095°02'0 0.0
2018-Jun-15 07:56N 29°37' W 095°02'0 0.0
2018-Jun-15 07:24N 29°37' W 095°02'0 0.0
2018-Jun-15 06:56N 29°37' W 095°02'0 0.0
2018-Jun-15 06:30N 29°37' W 095°02'0 0.0
2018-Jun-15 06:00N 29°37' W 095°02'0 0.0
2018-Jun-15 05:28N 29°37' W 095°02'0 0.0
2018-Jun-15 05:00N 29°37' W 095°02'0 0.0
2018-Jun-15 04:26N 29°37' W 095°02'0 0.0
2018-Jun-15 03:59N 29°37' W 095°02'0 0.0
2018-Jun-15 03:30N 29°37' W 095°02'0 0.0
2018-Jun-15 02:56N 29°37' W 095°02'  

Dump ship's entire track history